createdAt,value
2019-03-22T00:04:04.117Z,54.54
2019-03-22T00:06:48.688Z,55.17
2019-03-22T00:10:00.010Z,54.50
2019-03-22T00:13:02.142Z,52.41
2019-03-22T00:15:34.010Z,53.75
2019-03-22T00:18:55.721Z,53.65
2019-03-22T00:21:28.080Z,53.50
2019-03-22T00:24:30.205Z,54.74
2019-03-22T00:27:32.164Z,53.74
2019-03-22T00:30:04.004Z,50.45
2019-03-22T00:35:59.124Z,47.77
2019-03-22T00:38:50.392Z,46.74
2019-03-22T00:41:41.567Z,45.72
2019-03-22T00:44:51.546Z,45.32
2019-03-22T00:50:27.272Z,48.17
2019-03-22T00:53:18.441Z,48.69
2019-03-22T01:05:02.361Z,48.37
2019-03-22T01:07:47.056Z,50.79
2019-03-22T01:10:21.782Z,51.80
2019-03-22T01:13:13.014Z,52.41
2019-03-22T01:16:22.989Z,50.35
2019-03-22T01:22:01.419Z,52.19
2019-03-22T01:27:49.360Z,53.89
2019-03-22T01:33:17.610Z,52.97
2019-03-22T01:35:51.430Z,52.26
2019-03-22T01:38:53.262Z,52.66
2019-03-22T01:41:26.214Z,54.70
2019-03-22T01:44:28.590Z,56.60
2019-03-22T01:50:03.282Z,57.21
2019-03-22T01:52:54.457Z,56.64
2019-03-22T01:58:43.108Z,57.32
2019-03-22T02:01:15.584Z,57.73
2019-03-22T02:04:06.774Z,57.07
2019-03-22T02:12:41.736Z,51.66
2019-03-22T02:18:29.389Z,52.70
2019-03-22T02:21:14.414Z,53.45
2019-03-22T02:23:48.625Z,54.83
2019-03-22T02:32:28.639Z,51.53
2019-03-22T02:35:28.998Z,50.46
2019-03-22T02:40:48.695Z,52.24
2019-03-22T02:43:50.508Z,54.06
2019-03-22T02:46:24.758Z,53.45
2019-03-22T02:52:14.257Z,55.07
2019-03-22T02:54:48.664Z,52.61
2019-03-22T03:00:25.414Z,48.71
2019-03-22T03:03:16.581Z,48.49
2019-03-22T03:06:20.522Z,48.87
2019-03-22T03:09:04.214Z,51.40
2019-03-22T03:11:49.081Z,51.10
2019-03-22T03:14:39.955Z,54.10
2019-03-22T03:17:31.399Z,56.01
2019-03-22T03:20:26.506Z,55.41
2019-03-22T03:23:11.743Z,52.43
2019-03-22T03:25:46.096Z,50.36
2019-03-22T03:28:39.269Z,50.09
2019-03-22T03:34:36.063Z,50.39
2019-03-22T03:48:30.700Z,55.00
2019-03-22T03:56:51.747Z,55.77
2019-03-22T03:59:42.948Z,53.70
2019-03-22T04:05:19.116Z,51.78
2019-03-22T04:08:29.082Z,52.68
2019-03-22T04:11:20.250Z,53.75
2019-03-22T04:17:06.314Z,50.77
2019-03-22T04:19:40.127Z,50.23
2019-03-22T04:25:16.207Z,54.69
2019-03-22T04:36:40.976Z,49.45
2019-03-22T04:39:32.189Z,48.67
2019-03-22T04:48:13.334Z,55.37
2019-03-22T05:00:20.718Z,57.47
2019-03-22T05:18:52.496Z,51.56
2019-03-22T05:27:59.796Z,55.58
2019-03-22T05:31:28.625Z,57.00
2019-03-22T05:34:19.354Z,57.30
2019-03-22T05:40:17.403Z,59.10
2019-03-22T05:43:02.920Z,60.23
2019-03-22T05:45:46.569Z,60.04
2019-03-22T05:51:03.577Z,61.66
2019-03-22T05:53:54.854Z,62.51
2019-03-22T05:56:46.135Z,61.77
2019-03-22T06:00:15.045Z,62.04
2019-03-22T06:05:53.574Z,61.13
2019-03-22T06:11:41.645Z,58.19
2019-03-22T06:14:25.078Z,57.88
2019-03-22T06:16:57.644Z,57.40
2019-03-22T06:22:34.906Z,52.63
2019-03-22T06:25:26.211Z,52.21
2019-03-22T06:28:28.637Z,52.48
2019-03-22T06:31:00.830Z,52.05
2019-03-22T06:33:52.071Z,51.96
2019-03-22T06:36:55.177Z,50.40
2019-03-22T06:42:15.857Z,47.01
2019-03-22T06:45:25.997Z,45.77
2019-03-22T06:54:58.082Z,42.13
2019-03-22T06:57:45.453Z,42.56
2019-03-22T07:03:21.475Z,41.07
2019-03-22T07:06:04.863Z,41.27
2019-03-22T07:08:57.615Z,40.61
2019-03-22T07:11:48.791Z,39.23
2019-03-22T07:17:29.989Z,38.72
2019-03-22T07:20:21.148Z,38.00
2019-03-22T07:23:23.656Z,37.33
2019-03-22T07:25:58.048Z,36.45
2019-03-22T07:29:00.262Z,36.33
2019-03-22T07:34:20.096Z,37.34
2019-03-22T07:37:11.386Z,37.43
2019-03-22T07:42:57.165Z,35.70
2019-03-22T07:48:13.198Z,33.35
2019-03-22T07:51:04.399Z,32.61
2019-03-22T08:02:25.648Z,33.56
2019-03-22T08:07:58.290Z,33.60
2019-03-22T08:10:30.427Z,32.39
2019-03-22T08:18:49.396Z,30.66
2019-03-22T08:21:51.900Z,31.28
2019-03-22T08:24:36.279Z,30.89
2019-03-22T08:27:22.181Z,32.32
2019-03-22T08:29:54.195Z,32.05
2019-03-22T08:32:45.369Z,32.61
2019-03-22T08:35:48.079Z,31.45
2019-03-22T08:38:22.556Z,30.88
2019-03-22T08:41:13.831Z,31.05
2019-03-22T08:47:04.127Z,32.47
2019-03-22T08:52:41.177Z,29.32
2019-03-22T08:55:43.754Z,29.12
2019-03-22T08:58:27.319Z,30.46
2019-03-22T09:01:18.773Z,30.64
2019-03-22T09:04:09.928Z,30.03
2019-03-22T09:07:11.975Z,29.97
2019-03-22T09:09:46.330Z,29.87
2019-03-22T09:12:48.058Z,29.87
2019-03-22T09:18:09.590Z,28.41
2019-03-22T09:29:16.521Z,27.37
2019-03-22T09:32:07.684Z,27.44
2019-03-22T09:37:43.607Z,24.58
2019-03-22T09:40:34.852Z,21.46
2019-03-22T09:43:16.831Z,17.29
2019-03-22T09:46:19.155Z,14.51
2019-03-22T09:48:52.689Z,12.72
2019-03-22T09:54:31.670Z,10.85
2019-03-22T09:57:22.917Z,11.10
2019-03-22T10:03:31.354Z,9.44
2019-03-22T10:06:04.013Z,10.05
2019-03-22T10:08:46.886Z,9.54
2019-03-22T10:11:39.500Z,10.25
2019-03-22T10:14:31.467Z,10.47
2019-03-22T10:20:19.734Z,11.25
2019-03-22T10:26:07.399Z,10.03
2019-03-22T10:28:52.258Z,7.79
2019-03-22T10:31:37.066Z,9.01
2019-03-22T10:37:08.505Z,8.53
2019-03-22T10:39:42.063Z,11.14
2019-03-22T10:42:52.052Z,12.26
2019-03-22T10:51:10.913Z,11.36
2019-03-22T10:54:13.438Z,15.05
2019-03-22T10:56:57.660Z,11.87
2019-03-22T10:59:30.665Z,10.68
2019-03-22T11:08:22.314Z,15.37
2019-03-22T11:14:01.649Z,20.39
2019-03-22T11:17:04.198Z,21.01
2019-03-22T11:19:49.668Z,21.88
2019-03-22T11:22:22.309Z,22.06
2019-03-22T11:25:33.781Z,21.62
2019-03-22T11:31:08.107Z,22.66
2019-03-22T11:34:11.584Z,21.91
2019-03-22T11:36:54.144Z,20.59
2019-03-22T11:39:28.152Z,21.21
2019-03-22T11:42:19.466Z,21.73
2019-03-22T11:51:35.047Z,21.05
2019-03-22T11:57:14.865Z,22.11
2019-03-22T12:00:37.927Z,22.50
2019-03-22T12:03:12.534Z,22.80
2019-03-22T12:08:47.462Z,21.81
2019-03-22T12:11:30.406Z,24.02
2019-03-22T12:14:14.521Z,22.72
2019-03-22T12:16:46.512Z,24.22
2019-03-22T12:19:48.723Z,23.47
2019-03-22T12:30:58.301Z,21.12
2019-03-22T12:39:17.037Z,22.33
2019-03-22T12:42:19.773Z,22.05
2019-03-22T12:45:04.790Z,21.91
2019-03-22T12:47:37.448Z,22.66
2019-03-22T12:50:58.689Z,22.87
2019-03-22T12:53:50.858Z,23.85
2019-03-22T12:56:42.001Z,25.28
2019-03-22T12:59:33.185Z,27.12
2019-03-22T13:02:04.999Z,28.67
2019-03-22T13:04:56.272Z,27.50
2019-03-22T13:07:47.555Z,25.74
2019-03-22T13:10:39.387Z,26.53
2019-03-22T13:19:13.661Z,24.38
2019-03-22T13:24:31.607Z,22.67
2019-03-22T13:27:42.010Z,26.20
2019-03-22T13:36:39.896Z,21.61
2019-03-22T13:39:32.477Z,22.84
2019-03-22T13:42:29.174Z,22.34
2019-03-22T13:45:19.162Z,22.86
2019-03-22T13:47:54.512Z,22.50
2019-03-22T13:50:45.717Z,22.28
2019-03-22T13:53:36.908Z,21.59
2019-03-22T13:56:28.129Z,21.34
2019-03-22T14:02:04.101Z,23.22
2019-03-22T14:05:14.139Z,22.43
2019-03-22T14:08:15.952Z,22.40
2019-03-22T14:11:00.755Z,22.08
2019-03-22T14:16:33.500Z,23.79
2019-03-22T14:19:18.739Z,24.64
2019-03-22T14:21:51.795Z,26.36
2019-03-22T14:24:54.035Z,28.47
2019-03-22T14:36:08.529Z,29.25
2019-03-22T14:38:53.539Z,27.40
2019-03-22T14:41:37.525Z,25.79
2019-03-22T14:44:11.003Z,26.28
2019-03-22T14:47:02.127Z,26.47
2019-03-22T14:49:53.265Z,25.46
2019-03-22T14:52:44.403Z,26.67
2019-03-22T14:55:35.596Z,29.39
2019-03-22T15:01:11.204Z,28.78
2019-03-22T15:07:06.111Z,26.41
2019-03-22T15:09:57.347Z,26.80
2019-03-22T15:16:10.436Z,26.41
2019-03-22T15:19:20.516Z,25.68
2019-03-22T15:22:22.255Z,26.35
2019-03-22T15:25:05.260Z,27.44
2019-03-22T15:30:42.102Z,28.18
2019-03-22T15:36:27.950Z,27.56
2019-03-22T15:47:33.158Z,27.29
2019-03-22T15:53:28.106Z,28.52
2019-03-22T15:56:02.904Z,27.95
2019-03-22T15:59:04.950Z,28.25
2019-03-22T16:01:48.970Z,30.66
2019-03-22T16:04:23.244Z,30.67
2019-03-22T16:07:25.721Z,30.70
2019-03-22T16:10:00.554Z,30.00
2019-03-22T16:12:43.485Z,30.05
2019-03-22T16:15:45.461Z,32.06
2019-03-22T16:18:20.398Z,32.91
2019-03-22T16:21:21.415Z,31.38
2019-03-22T16:27:26.229Z,33.50
2019-03-22T16:30:17.176Z,35.69
2019-03-22T16:33:19.902Z,36.85
2019-03-22T16:36:03.757Z,37.20
2019-03-22T16:41:31.876Z,37.41
2019-03-22T16:44:05.080Z,37.51
2019-03-22T16:46:43.853Z,37.61
2019-03-22T16:52:22.346Z,37.17
2019-03-22T16:55:33.970Z,36.79
2019-03-22T16:58:25.167Z,37.22
2019-03-22T17:04:20.477Z,37.48
2019-03-22T17:07:11.689Z,37.97
2019-03-22T17:10:23.491Z,38.30
2019-03-22T17:13:04.819Z,37.72
2019-03-22T17:15:55.978Z,37.74
2019-03-22T17:19:05.994Z,37.83
2019-03-22T17:21:57.227Z,37.71
2019-03-22T17:24:59.275Z,37.44
2019-03-22T17:27:42.757Z,36.47
2019-03-22T17:30:26.353Z,35.92
2019-03-22T17:32:58.796Z,36.28
2019-03-22T17:35:50.042Z,36.52
2019-03-22T17:41:44.713Z,37.91
2019-03-22T17:44:35.945Z,37.37
2019-03-22T17:47:38.268Z,35.73
2019-03-22T17:53:18.054Z,35.89
2019-03-22T17:56:19.955Z,34.57
2019-03-22T17:59:04.580Z,34.59
2019-03-22T18:01:38.255Z,34.05
2019-03-22T18:04:40.501Z,33.66
2019-03-22T18:07:13.973Z,36.27
2019-03-22T18:13:20.581Z,40.15
2019-03-22T18:16:04.499Z,38.17
2019-03-22T18:18:38.022Z,38.28
2019-03-22T18:21:40.591Z,38.40
2019-03-22T18:24:14.001Z,41.32
2019-03-22T18:27:05.193Z,44.31
2019-03-22T18:29:56.437Z,44.53
2019-03-22T18:32:47.666Z,43.81
2019-03-22T18:35:19.583Z,42.03
2019-03-22T18:38:22.139Z,41.45
2019-03-22T18:43:40.054Z,41.91
2019-03-22T18:49:24.696Z,39.85
2019-03-22T18:52:17.926Z,40.32
2019-03-22T18:58:15.969Z,44.63
2019-03-22T19:01:18.312Z,43.03
2019-03-22T19:03:52.685Z,43.33
2019-03-22T19:06:44.098Z,41.64
2019-03-22T19:09:46.730Z,41.69
2019-03-22T19:12:20.339Z,43.01
2019-03-22T19:15:23.945Z,43.46
2019-03-22T19:18:06.428Z,43.15
2019-03-22T19:20:38.315Z,41.81
2019-03-22T19:26:14.422Z,44.64
2019-03-22T19:29:05.567Z,44.41
2019-03-22T19:31:56.703Z,43.38
2019-03-22T19:34:54.304Z,43.74
2019-03-22T19:37:31.392Z,44.24
2019-03-22T19:40:22.797Z,44.34
2019-03-22T19:43:24.727Z,45.77
2019-03-22T19:46:10.893Z,47.22
2019-03-22T19:48:54.017Z,47.55
2019-03-22T19:51:28.275Z,48.10
2019-03-22T19:54:19.447Z,47.84
2019-03-22T19:57:10.795Z,47.47
2019-03-22T20:00:20.784Z,47.66
2019-03-22T20:05:56.313Z,48.68
2019-03-22T20:08:47.684Z,48.81
2019-03-22T20:14:34.521Z,49.48
2019-03-22T20:17:08.473Z,49.66
2019-03-22T20:20:10.378Z,49.75
2019-03-22T20:25:40.783Z,49.77
2019-03-22T20:28:25.801Z,48.09
2019-03-22T20:31:17.310Z,46.51
2019-03-22T20:36:53.675Z,47.77
2019-03-22T20:42:31.654Z,50.19
2019-03-22T20:45:24.328Z,50.51
2019-03-22T20:48:17.491Z,52.06
2019-03-22T20:51:02.768Z,53.23
2019-03-22T20:53:46.649Z,52.81
2019-03-22T21:02:07.023Z,55.30
2019-03-22T21:04:50.027Z,53.18
2019-03-22T21:13:19.581Z,50.19
2019-03-22T21:16:10.986Z,51.47
2019-03-22T21:21:47.999Z,55.55
2019-03-22T21:27:33.533Z,55.94
2019-03-22T21:33:12.748Z,56.68
2019-03-22T21:36:03.927Z,56.54
2019-03-22T21:38:55.145Z,56.56
2019-03-22T21:41:46.243Z,55.63
2019-03-22T21:44:37.504Z,55.37
2019-03-22T21:47:58.984Z,56.07
2019-03-22T21:58:55.447Z,56.54
2019-03-22T22:01:48.842Z,58.15
2019-03-22T22:04:58.947Z,54.51
2019-03-22T22:08:09.056Z,53.15
2019-03-22T22:13:43.951Z,54.33
2019-03-22T22:16:35.217Z,56.27
2019-03-22T22:22:22.327Z,55.86
2019-03-22T22:24:56.130Z,56.23
2019-03-22T22:27:59.735Z,53.32
2019-03-22T22:30:43.735Z,55.63
2019-03-22T22:33:17.153Z,57.50
2019-03-22T22:36:18.887Z,57.73
2019-03-22T22:39:12.010Z,57.95
2019-03-22T22:44:48.304Z,56.88
2019-03-22T22:47:58.420Z,57.81
2019-03-22T22:50:59.647Z,58.19
2019-03-22T22:53:32.100Z,58.16
2019-03-22T22:56:42.077Z,59.24
2019-03-22T22:59:14.291Z,60.95
2019-03-22T23:02:05.480Z,62.25
2019-03-22T23:05:15.452Z,62.87
2019-03-22T23:08:18.086Z,61.35
2019-03-22T23:16:20.449Z,60.84
2019-03-22T23:19:23.119Z,62.35
2019-03-22T23:21:56.464Z,62.06
2019-03-22T23:27:51.457Z,62.64
2019-03-22T23:36:19.776Z,65.74
2019-03-22T23:39:13.990Z,66.51
2019-03-22T23:42:05.220Z,66.76
2019-03-22T23:45:15.222Z,65.72
2019-03-22T23:48:06.375Z,66.33
2019-03-22T23:50:57.536Z,66.88
2019-03-22T23:56:44.409Z,67.25
2019-03-22T23:59:28.204Z,67.35
